aviador You're here:

PAOM Decoded Metar

NOME in AK, USA
Report Time2017-11-20 12:53:00
UTC Time2017-11-20 13:22:16
Flight Rules vfr VFR
Wind050° at 04 kt
W.Decomp.*RWY 03: 4.0 kt HW 0.4 kt RCW
RWY 10: 1.8 kt HW 3.6 kt LCW
W.Rank050° ranks 16
Current wind is below 050° avg. (8.2)
Visibility9999 m
Phenomena:N/A
Clouds:N/A
Expected CloudBase > 400 ft AGL from Temp-Dew spread
CeilingNone
Temp-14°C (ISA -29)
Dew Point-15°C (92% RH)
AAT-18.8°C
QNH1021 hPa
Density Alt-3,868 ft
Elevation36 ft
Report Wrong Elevation
Raw Report
PAOM 201253Z AUTO 05004KT 10SM CLR M14/M15 A3016=

Extra information for PAOM:More info

Metar Taf Metar & Taf Last 4 Metars F.Rules Stats Wind Profile Meteogram Temp Stats Airport Information Weather charts Add Link Nearby VenuesMetar ALERT Operation Metar Decoded Social comments

AIRNAV info for PAOM